Time;durP1;ratioP1;P1;durP2;ratioP2;P2;SDS_P1;SDS_P2;PMS_P1;PMS_P2;Temp;Humidity;BMP_temperature;BMP_pressure;BME280_temperature;BME280_humidity;BME280_pressure;Samples;Min_cycle;Max_cycle;Signal;HPM_P1;HPM_P2
2024/04/05 00:01:50;;;;;;;0.85;0.47;;;16.50;76.60;;;;;;5018284;28;20046;-78
2024/04/05 00:04:16;;;;;;;0.30;0.30;;;16.50;76.70;;;;;;4985534;28;20093;-77
2024/04/05 00:06:42;;;;;;;0.75;0.45;;;16.50;76.80;;;;;;5007113;28;20046;-78
2024/04/05 00:09:08;;;;;;;0.70;0.60;;;16.50;76.90;;;;;;4985432;28;20415;-78
2024/04/05 00:11:33;;;;;;;0.50;0.35;;;16.50;76.80;;;;;;5003467;28;20053;-78
2024/04/05 00:13:59;;;;;;;0.70;0.45;;;16.50;76.80;;;;;;5002694;28;20050;-78
2024/04/05 00:16:25;;;;;;;0.90;0.45;;;16.50;76.80;;;;;;4986954;28;20135;-78
2024/04/05 00:18:50;;;;;;;0.73;0.50;;;16.40;76.80;;;;;;5004340;28;20527;-78
2024/04/05 00:21:16;;;;;;;0.50;0.25;;;16.40;76.90;;;;;;4986427;28;20129;-78
2024/04/05 00:23:42;;;;;;;0.57;0.30;;;16.40;76.90;;;;;;5004369;28;20111;-78
2024/04/05 00:26:09;;;;;;;0.95;0.50;;;16.40;76.90;;;;;;4988203;28;20157;-78
2024/04/05 00:28:35;;;;;;;0.60;0.30;;;16.40;76.90;;;;;;4987081;28;20045;-77
2024/04/05 00:31:01;;;;;;;0.50;0.40;;;16.50;76.90;;;;;;5005036;28;20688;-77
2024/04/05 00:33:27;;;;;;;0.40;0.30;;;16.40;76.90;;;;;;5004812;28;20042;-77
2024/04/05 00:35:54;;;;;;;0.60;0.50;;;16.40;76.90;;;;;;5004097;28;20045;-77
2024/04/05 00:38:20;;;;;;;0.88;0.40;;;16.40;76.80;;;;;;5015564;28;20050;-78
2024/04/05 00:40:46;;;;;;;0.57;0.50;;;16.40;76.90;;;;;;5004105;28;20049;-78
2024/04/05 00:43:12;;;;;;;0.55;0.47;;;16.40;76.90;;;;;;4986358;28;20042;-78
2024/04/05 00:45:38;;;;;;;1.80;0.40;;;16.40;76.90;;;;;;4987246;28;20060;-77
2024/04/05 00:48:04;;;;;;;0.65;0.40;;;16.40;76.80;;;;;;4991493;28;20058;-78
2024/04/05 00:50:30;;;;;;;1.10;0.50;;;16.40;76.90;;;;;;5000591;28;20050;-77
2024/04/05 00:52:59;;;;;;;0.50;0.40;;;16.40;76.90;;;;;;5018194;28;20056;-78
2024/04/05 00:55:29;;;;;;;0.80;0.38;;;16.40;76.90;;;;;;5002556;28;20049;-76
2024/04/05 00:57:57;;;;;;;0.50;0.43;;;16.40;76.90;;;;;;4990153;28;20050;-77
2024/04/05 01:00:24;;;;;;;0.30;0.30;;;16.40;76.80;;;;;;5001498;28;20046;-78
2024/04/05 01:02:50;;;;;;;0.60;0.25;;;16.40;76.90;;;;;;5009637;28;20042;-77
2024/04/05 01:05:16;;;;;;;0.90;0.43;;;16.40;76.80;;;;;;5007522;28;20049;-77
2024/04/05 01:07:41;;;;;;;0.52;0.30;;;16.40;76.90;;;;;;5007578;28;20026;-78
2024/04/05 01:10:07;;;;;;;2.22;0.63;;;16.40;76.90;;;;;;5020293;28;20034;-77
2024/04/05 01:12:33;;;;;;;0.55;0.40;;;16.40;76.90;;;;;;5008924;28;20555;-78
2024/04/05 01:14:58;;;;;;;0.57;0.40;;;16.40;76.90;;;;;;5008405;28;20045;-77
2024/04/05 01:17:24;;;;;;;0.70;0.70;;;16.40;76.90;;;;;;5006522;28;20061;-77
2024/04/05 01:19:49;;;;;;;0.68;0.38;;;16.40;76.90;;;;;;4990713;28;20038;-77
2024/04/05 01:22:15;;;;;;;0.30;0.30;;;16.40;76.90;;;;;;4972719;28;20041;-78
2024/04/05 01:24:41;;;;;;;0.30;0.30;;;16.40;76.90;;;;;;4990292;28;20129;-78
2024/04/05 01:27:06;;;;;;;0.30;0.30;;;16.40;77.00;;;;;;5015081;28;20038;-78
2024/04/05 01:29:32;;;;;;;0.70;0.57;;;16.40;77.00;;;;;;5006806;28;20049;-78
2024/04/05 01:31:57;;;;;;;0.65;0.40;;;16.40;77.00;;;;;;5017669;28;20511;-78
2024/04/05 01:34:23;;;;;;;0.75;0.32;;;16.40;77.10;;;;;;4973763;28;20034;-78
2024/04/05 01:36:50;;;;;;;0.50;0.40;;;16.40;77.00;;;;;;4992144;28;20519;-78
2024/04/05 01:39:15;;;;;;;0.73;0.73;;;16.40;77.10;;;;;;5005676;28;20070;-78
2024/04/05 01:41:41;;;;;;;0.30;0.30;;;16.40;77.10;;;;;;5008436;28;20506;-78
2024/04/05 01:44:07;;;;;;;0.63;0.60;;;16.40;77.20;;;;;;5019660;28;20037;-77
2024/04/05 01:46:32;;;;;;;0.22;0.20;;;16.30;77.10;;;;;;5005430;28;20613;-77
2024/04/05 01:48:58;;;;;;;1.50;0.40;;;16.40;77.30;;;;;;5033544;28;20121;-77
2024/04/05 01:51:23;;;;;;;1.02;0.50;;;16.40;77.30;;;;;;5018970;28;20411;-78
2024/04/05 01:53:49;;;;;;;0.43;0.43;;;16.40;77.30;;;;;;5007146;28;20042;-78
2024/04/05 01:56:14;;;;;;;0.47;0.47;;;16.40;77.40;;;;;;5006469;28;20037;-77
2024/04/05 01:58:40;;;;;;;0.50;0.43;;;16.40;77.30;;;;;;5006692;28;20049;-78
2024/04/05 02:01:05;;;;;;;0.38;0.38;;;16.30;77.40;;;;;;5005227;28;20034;-77
2024/04/05 02:03:31;;;;;;;0.40;0.40;;;16.40;77.30;;;;;;5004119;28;20065;-77
2024/04/05 02:05:57;;;;;;;0.43;0.40;;;16.30;77.20;;;;;;5005870;28;20434;-77
2024/04/05 02:08:22;;;;;;;0.40;0.40;;;16.40;77.30;;;;;;4988858;28;20042;-78
2024/04/05 02:10:48;;;;;;;0.40;0.40;;;16.40;77.40;;;;;;5032955;28;20049;-77
2024/04/05 02:13:13;;;;;;;1.83;0.60;;;16.40;77.40;;;;;;4995040;28;20042;-77
2024/04/05 02:15:43;;;;;;;0.40;0.28;;;16.40;77.40;;;;;;4988357;28;20049;-77
2024/04/05 02:18:10;;;;;;;0.70;0.40;;;16.30;77.40;;;;;;4991270;28;20046;-78
2024/04/05 02:20:36;;;;;;;0.60;0.32;;;16.30;77.40;;;;;;5021392;28;20530;-78
2024/04/05 02:23:02;;;;;;;0.50;0.30;;;16.40;77.40;;;;;;4992700;28;20123;-78
2024/04/05 02:25:27;;;;;;;0.80;0.50;;;16.40;77.40;;;;;;5004626;28;20088;-78
2024/04/05 02:27:53;;;;;;;0.40;0.30;;;16.40;77.30;;;;;;5018992;28;20575;-78
2024/04/05 02:30:20;;;;;;;0.60;0.38;;;16.40;77.40;;;;;;5005704;28;20042;-78
2024/04/05 02:32:46;;;;;;;0.30;0.30;;;16.40;77.40;;;;;;4985698;28;20049;-78
2024/04/05 02:35:12;;;;;;;0.30;0.20;;;16.40;77.40;;;;;;5006671;28;20042;-78
2024/04/05 02:37:37;;;;;;;0.60;0.20;;;16.40;77.40;;;;;;4988848;28;21586;-78
2024/04/05 02:40:04;;;;;;;0.30;0.28;;;16.40;77.50;;;;;;4989801;28;20572;-78
2024/04/05 02:42:30;;;;;;;0.32;0.32;;;16.30;77.40;;;;;;5006803;28;20066;-78
2024/04/05 02:44:55;;;;;;;0.30;0.30;;;16.40;77.50;;;;;;4987389;28;20066;-78
2024/04/05 02:47:21;;;;;;;0.32;0.30;;;16.30;77.40;;;;;;5004076;28;20042;-78
2024/04/05 02:49:46;;;;;;;0.50;0.40;;;16.30;77.40;;;;;;4989970;28;20049;-77
2024/04/05 02:52:12;;;;;;;0.32;0.30;;;16.30;77.50;;;;;;4989307;28;20407;-78
2024/04/05 02:54:37;;;;;;;0.40;0.40;;;16.30;77.40;;;;;;5005446;28;20037;-77
2024/04/05 02:57:03;;;;;;;0.20;0.20;;;16.30;77.40;;;;;;4989262;28;20571;-78
2024/04/05 02:59:29;;;;;;;0.50;0.30;;;16.30;77.40;;;;;;5005509;28;20057;-78
2024/04/05 03:01:54;;;;;;;0.50;0.40;;;16.30;77.40;;;;;;4969707;28;20053;-78
2024/04/05 03:04:20;;;;;;;0.30;0.30;;;16.40;77.50;;;;;;4985716;28;20060;-78
2024/04/05 03:06:45;;;;;;;0.88;0.60;;;16.40;77.60;;;;;;4977502;28;20540;-78
2024/04/05 03:09:11;;;;;;;0.50;0.50;;;16.40;77.70;;;;;;5004697;28;20038;-78
2024/04/05 03:11:36;;;;;;;0.52;0.35;;;16.30;77.70;;;;;;4987443;28;20092;-78
2024/04/05 03:14:02;;;;;;;0.38;0.20;;;16.40;77.80;;;;;;5004726;28;20412;-78
2024/04/05 03:16:28;;;;;;;0.40;0.30;;;16.40;77.80;;;;;;4986906;28;20057;-78
2024/04/05 03:18:53;;;;;;;0.60;0.30;;;16.40;77.80;;;;;;5020283;28;20541;-77
2024/04/05 03:21:19;;;;;;;0.10;0.10;;;16.40;77.80;;;;;;5003312;28;20522;-77
2024/04/05 03:23:44;;;;;;;0.45;0.40;;;16.40;77.80;;;;;;5002559;28;21996;-78
2024/04/05 03:26:10;;;;;;;0.75;0.50;;;16.40;77.80;;;;;;5007677;28;20050;-78
2024/04/05 03:28:35;;;;;;;0.63;0.63;;;16.40;77.90;;;;;;5018212;28;20058;-78
2024/04/05 03:31:05;;;;;;;0.60;0.52;;;16.40;78.00;;;;;;4989541;28;20045;-78
2024/04/05 03:33:32;;;;;;;0.60;0.60;;;16.40;78.00;;;;;;5002321;28;20038;-78
2024/04/05 03:36:04;;;;;;;0.70;0.60;;;16.40;78.10;;;;;;5004127;28;20053;-78
2024/04/05 03:38:30;;;;;;;1.33;0.30;;;16.40;78.80;;;;;;5003838;28;20045;-78
2024/04/05 03:40:56;;;;;;;0.32;0.32;;;16.40;77.90;;;;;;5014830;28;20046;-78
2024/04/05 03:43:21;;;;;;;0.50;0.40;;;16.40;77.80;;;;;;5000754;28;20034;-78
2024/04/05 03:45:48;;;;;;;0.73;0.50;;;16.40;77.90;;;;;;5004839;28;20070;-78
2024/04/05 03:48:13;;;;;;;1.17;0.45;;;16.40;77.90;;;;;;5012983;28;20039;-78
2024/04/05 03:50:39;;;;;;;0.30;0.30;;;16.40;77.80;;;;;;5014721;28;20128;-78
2024/04/05 03:53:04;;;;;;;0.90;0.52;;;16.40;77.70;;;;;;4991837;28;20030;-78
2024/04/05 03:55:30;;;;;;;0.40;0.40;;;16.40;77.80;;;;;;5004112;28;20508;-78
2024/04/05 03:57:55;;;;;;;0.35;0.30;;;16.40;77.70;;;;;;5005160;28;20058;-77
2024/04/05 04:00:21;;;;;;;0.60;0.35;;;16.40;77.70;;;;;;4971098;28;20029;-78
2024/04/05 04:02:52;;;;;;;0.30;0.30;;;16.50;77.80;;;;;;5003598;28;20029;-78
2024/04/05 04:05:18;;;;;;;0.38;0.38;;;16.50;77.70;;;;;;4988225;28;20049;-78
2024/04/05 04:07:44;;;;;;;0.40;0.30;;;16.50;77.70;;;;;;5003626;28;20049;-77
2024/04/05 04:10:11;;;;;;;0.68;0.32;;;16.50;77.70;;;;;;5005999;28;20046;-78
2024/04/05 04:12:37;;;;;;;0.43;0.40;;;16.50;77.60;;;;;;5005509;28;20103;-78
2024/04/05 04:15:04;;;;;;;0.65;0.40;;;16.50;77.60;;;;;;4986764;28;20038;-79
2024/04/05 04:17:30;;;;;;;0.28;0.20;;;16.50;77.60;;;;;;4984550;28;20045;-78
2024/04/05 04:19:59;;;;;;;0.43;0.30;;;16.50;77.70;;;;;;5029414;28;20395;-78
2024/04/05 04:22:24;;;;;;;0.32;0.32;;;16.50;77.70;;;;;;5002012;28;20050;-78
2024/04/05 04:24:50;;;;;;;0.90;0.40;;;16.50;77.70;;;;;;5004235;28;20531;-77
2024/04/05 04:27:16;;;;;;;0.65;0.40;;;16.50;77.70;;;;;;4985744;28;20037;-77
2024/04/05 04:29:43;;;;;;;2.30;0.70;;;16.50;77.80;;;;;;4982597;28;20045;-77
2024/04/05 04:32:09;;;;;;;0.60;0.43;;;16.50;77.90;;;;;;5009749;28;20050;-77
2024/04/05 04:34:34;;;;;;;1.65;0.40;;;16.50;78.10;;;;;;4983143;28;20065;-78
2024/04/05 04:37:00;;;;;;;0.45;0.45;;;16.50;78.20;;;;;;5005334;28;20179;-78
2024/04/05 04:39:26;;;;;;;0.50;0.50;;;16.50;78.20;;;;;;4986104;28;20392;-77
2024/04/05 04:41:51;;;;;;;0.47;0.40;;;16.50;78.20;;;;;;4982388;28;20480;-77
2024/04/05 04:44:17;;;;;;;0.30;0.30;;;16.50;78.10;;;;;;5001809;28;20107;-77
2024/04/05 04:46:42;;;;;;;0.40;0.40;;;16.50;77.80;;;;;;4982554;28;20537;-77
2024/04/05 04:49:08;;;;;;;0.28;0.28;;;16.50;77.80;;;;;;5003095;28;20046;-77
2024/04/05 04:51:34;;;;;;;0.30;0.30;;;16.50;77.80;;;;;;4993547;28;20041;-77
2024/04/05 04:54:00;;;;;;;0.57;0.30;;;16.50;77.70;;;;;;4985931;28;20054;-76
2024/04/05 04:56:30;;;;;;;0.40;0.40;;;16.50;77.60;;;;;;4982324;28;20133;-77
2024/04/05 04:58:56;;;;;;;0.50;0.30;;;16.50;77.50;;;;;;5003299;28;20046;-77
2024/04/05 05:01:22;;;;;;;0.38;0.38;;;16.50;77.50;;;;;;5001081;28;20034;-77
2024/04/05 05:03:48;;;;;;;0.30;0.30;;;16.50;77.50;;;;;;5003408;28;20101;-77
2024/04/05 05:06:13;;;;;;;0.35;0.30;;;16.50;77.50;;;;;;4985819;28;20038;-77
2024/04/05 05:08:39;;;;;;;1.58;0.40;;;16.50;77.50;;;;;;4999399;28;20050;-77
2024/04/05 05:11:05;;;;;;;0.43;0.40;;;16.50;77.40;;;;;;5002600;28;20542;-77
2024/04/05 05:13:31;;;;;;;0.60;0.40;;;16.50;77.40;;;;;;5000212;28;20037;-77
2024/04/05 05:15:57;;;;;;;0.40;0.40;;;16.60;78.00;;;;;;5001611;28;20455;-76
2024/04/05 05:18:23;;;;;;;0.45;0.30;;;16.60;78.90;;;;;;5002317;28;20038;-76
2024/04/05 05:20:49;;;;;;;0.20;0.20;;;16.60;79.80;;;;;;5000292;28;20046;-77
2024/04/05 05:23:15;;;;;;;0.43;0.30;;;16.60;80.10;;;;;;4984254;28;20034;-77
2024/04/05 05:25:42;;;;;;;0.22;0.22;;;16.60;80.10;;;;;;5001479;28;20404;-77
2024/04/05 05:28:09;;;;;;;0.47;0.32;;;16.50;79.90;;;;;;4986573;28;20353;-76
2024/04/05 05:30:34;;;;;;;0.60;0.43;;;16.50;79.90;;;;;;5002278;28;20042;-76
2024/04/05 05:33:00;;;;;;;0.20;0.20;;;16.60;79.70;;;;;;5000624;28;20053;-77
2024/04/05 05:35:26;;;;;;;1.13;0.30;;;16.60;79.80;;;;;;5000681;28;20038;-77
2024/04/05 05:37:52;;;;;;;0.63;0.30;;;16.60;79.60;;;;;;4968601;28;20499;-76
2024/04/05 05:40:18;;;;;;;1.85;0.55;;;16.60;79.60;;;;;;4985198;28;20049;-79
2024/04/05 05:42:43;;;;;;;0.30;0.30;;;16.60;79.70;;;;;;5002059;28;20038;-79
2024/04/05 05:45:09;;;;;;;0.28;0.28;;;16.60;79.30;;;;;;4973006;28;20042;-79
2024/04/05 05:47:34;;;;;;;0.25;0.25;;;16.70;79.30;;;;;;4960321;28;20448;-79
2024/04/05 05:50:00;;;;;;;0.40;0.40;;;16.70;79.30;;;;;;5005918;28;20109;-79
2024/04/05 05:52:25;;;;;;;0.45;0.28;;;16.70;79.60;;;;;;5035710;28;20053;-79
2024/04/05 05:54:52;;;;;;;0.50;0.40;;;16.70;79.60;;;;;;5007051;28;20038;-79
2024/04/05 05:57:17;;;;;;;0.50;0.40;;;16.70;80.00;;;;;;5003445;28;20046;-78
2024/04/05 05:59:43;;;;;;;3.00;0.40;;;16.70;80.20;;;;;;5000582;28;20511;-79
2024/04/05 06:02:08;;;;;;;1.13;0.38;;;16.70;80.10;;;;;;4983669;28;20104;-79
2024/04/05 06:04:34;;;;;;;0.40;0.20;;;16.60;80.10;;;;;;4986201;28;20034;-79
2024/04/05 06:06:59;;;;;;;0.32;0.30;;;16.60;81.10;;;;;;5015452;28;20054;-79
2024/04/05 06:09:25;;;;;;;0.20;0.20;;;16.60;80.30;;;;;;4988547;28;21080;-79
2024/04/05 06:11:51;;;;;;;0.35;0.25;;;16.60;80.30;;;;;;5003539;28;20053;-79
2024/04/05 06:14:17;;;;;;;0.20;0.20;;;16.60;80.40;;;;;;5031309;28;20527;-79
2024/04/05 06:16:43;;;;;;;0.38;0.30;;;16.70;80.70;;;;;;4985377;28;20069;-80
2024/04/05 06:19:08;;;;;;;0.40;0.32;;;16.60;80.70;;;;;;5006737;28;20511;-79
2024/04/05 06:21:34;;;;;;;0.77;0.30;;;16.60;80.70;;;;;;5037549;28;20495;-79
2024/04/05 06:24:00;;;;;;;2.55;0.20;;;16.60;81.20;;;;;;4990777;28;20077;-79
2024/04/05 06:26:26;;;;;;;0.25;0.20;;;16.70;81.50;;;;;;5021034;28;20053;-79
2024/04/05 06:28:51;;;;;;;0.30;0.20;;;16.70;81.60;;;;;;4996300;28;20066;-79
2024/04/05 06:31:17;;;;;;;0.40;0.40;;;16.70;81.90;;;;;;4985086;28;20488;-79
2024/04/05 06:33:44;;;;;;;1.20;0.32;;;16.70;82.00;;;;;;5038972;28;20513;-79
2024/04/05 06:36:09;;;;;;;1.40;0.30;;;16.70;81.90;;;;;;5004455;28;20038;-79
2024/04/05 06:38:35;;;;;;;1.30;0.32;;;16.70;82.00;;;;;;4993085;28;20104;-79
2024/04/05 06:41:01;;;;;;;0.65;0.38;;;16.60;82.00;;;;;;5004640;28;20088;-79
2024/04/05 06:43:30;;;;;;;1.75;0.30;;;16.60;82.30;;;;;;5003306;28;20442;-79
2024/04/05 06:45:59;;;;;;;0.35;0.20;;;16.60;82.30;;;;;;4990746;28;20050;-79
2024/04/05 06:48:25;;;;;;;0.73;0.32;;;16.60;82.60;;;;;;4988770;28;20038;-79
2024/04/05 06:50:51;;;;;;;0.20;0.17;;;16.60;82.60;;;;;;5005579;28;20046;-79
2024/04/05 06:53:20;;;;;;;1.45;0.30;;;16.60;82.40;;;;;;5004611;28;20412;-79
2024/04/05 06:55:49;;;;;;;1.95;0.47;;;16.60;82.30;;;;;;4989763;28;20046;-79
2024/04/05 06:58:15;;;;;;;0.88;0.40;;;16.60;82.20;;;;;;5035538;28;20049;-79
2024/04/05 07:00:41;;;;;;;0.30;0.30;;;16.60;82.10;;;;;;5007263;28;20050;-79
2024/04/05 07:03:07;;;;;;;0.40;0.38;;;16.60;82.30;;;;;;5005783;28;20048;-79
2024/04/05 07:05:33;;;;;;;0.95;0.20;;;16.60;82.20;;;;;;5019850;28;20499;-79
2024/04/05 07:07:59;;;;;;;0.50;0.22;;;16.60;82.30;;;;;;5005801;28;20077;-79
2024/04/05 07:10:24;;;;;;;2.58;0.30;;;16.60;82.30;;;;;;4990349;28;20527;-77
2024/04/05 07:12:53;;;;;;;0.40;0.25;;;16.60;82.40;;;;;;5006789;28;20044;-77
2024/04/05 07:15:22;;;;;;;0.35;0.30;;;16.60;82.30;;;;;;5006706;28;20033;-77
2024/04/05 07:17:54;;;;;;;0.85;0.30;;;16.60;82.30;;;;;;5005295;28;20520;-77
2024/04/05 07:20:26;;;;;;;0.50;0.30;;;16.50;82.50;;;;;;5001368;28;20057;-77
2024/04/05 07:22:52;;;;;;;0.35;0.20;;;16.60;82.30;;;;;;4989545;28;20065;-77
2024/04/05 07:25:22;;;;;;;0.82;0.30;;;16.60;82.40;;;;;;5006690;28;20675;-77
2024/04/05 07:27:51;;;;;;;0.40;0.32;;;16.60;82.30;;;;;;5004433;28;20038;-77
2024/04/05 07:30:27;;;;;;;0.32;0.30;;;16.50;82.40;;;;;;5004687;28;20045;-77
2024/04/05 07:32:54;;;;;;;0.30;0.28;;;16.50;82.30;;;;;;5004064;28;20415;-77
2024/04/05 07:35:20;;;;;;;0.55;0.30;;;16.50;82.40;;;;;;5004849;28;20045;-77
2024/04/05 07:37:47;;;;;;;0.68;0.25;;;16.50;82.50;;;;;;5005356;28;20428;-77
2024/04/05 07:40:21;;;;;;;0.10;0.10;;;16.60;82.50;;;;;;5004000;28;20042;-77
2024/04/05 07:42:51;;;;;;;0.43;0.30;;;16.50;82.50;;;;;;5005564;28;20407;-77
2024/04/05 07:45:19;;;;;;;0.20;0.20;;;16.50;82.50;;;;;;5004849;28;20054;-77
2024/04/05 07:47:47;;;;;;;0.88;0.38;;;16.60;82.60;;;;;;5003521;28;20419;-77
2024/04/05 07:50:14;;;;;;;0.30;0.30;;;16.50;82.60;;;;;;5000874;28;20099;-77
2024/04/05 07:52:41;;;;;;;0.30;0.20;;;16.50;82.50;;;;;;5004633;28;20084;-77
2024/04/05 07:55:08;;;;;;;0.20;0.20;;;16.50;82.60;;;;;;5005819;28;20117;-77
2024/04/05 07:57:33;;;;;;;0.73;0.40;;;16.50;82.70;;;;;;5005435;28;20056;-77
2024/04/05 07:59:59;;;;;;;0.30;0.30;;;16.60;82.90;;;;;;5005293;28;20042;-77
2024/04/05 08:02:29;;;;;;;0.30;0.30;;;16.50;82.80;;;;;;5004923;28;20036;-77
2024/04/05 08:04:55;;;;;;;0.50;0.30;;;16.50;82.70;;;;;;5003069;28;20464;-77
2024/04/05 08:07:25;;;;;;;1.45;0.30;;;16.60;82.80;;;;;;4969400;28;20049;-77
2024/04/05 08:09:52;;;;;;;0.75;0.35;;;16.60;82.80;;;;;;5004955;28;20077;-77
2024/04/05 08:12:17;;;;;;;0.57;0.30;;;16.60;82.70;;;;;;5004244;28;20072;-77
2024/04/05 08:14:43;;;;;;;0.40;0.32;;;16.60;82.70;;;;;;5004455;28;20449;-77
2024/04/05 08:17:09;;;;;;;0.20;0.20;;;16.60;82.60;;;;;;5004120;28;20065;-77
2024/04/05 08:19:34;;;;;;;1.67;0.40;;;16.60;82.80;;;;;;5004041;28;21209;-77
2024/04/05 08:22:00;;;;;;;0.30;0.30;;;16.60;82.60;;;;;;5004013;28;20132;-77
2024/04/05 08:24:25;;;;;;;0.30;0.20;;;16.70;82.70;;;;;;4987074;28;20045;-77
2024/04/05 08:26:51;;;;;;;0.50;0.20;;;16.70;82.80;;;;;;4994796;28;20113;-77
2024/04/05 08:29:17;;;;;;;0.20;0.20;;;16.70;82.70;;;;;;4997949;28;20041;-77
2024/04/05 08:31:43;;;;;;;0.40;0.40;;;16.70;82.40;;;;;;5004191;28;20056;-77
2024/04/05 08:34:08;;;;;;;0.30;0.28;;;16.70;82.30;;;;;;5004869;28;20513;-77
2024/04/05 08:36:34;;;;;;;0.30;0.20;;;16.70;82.00;;;;;;5005100;28;20041;-77
2024/04/05 08:39:00;;;;;;;0.35;0.35;;;16.80;82.10;;;;;;5002489;28;20503;-77
2024/04/05 08:41:31;;;;;;;0.28;0.28;;;16.80;82.00;;;;;;5031094;28;20038;-76
2024/04/05 08:43:58;;;;;;;1.13;0.35;;;16.80;82.00;;;;;;5004234;28;20060;-78
2024/04/05 08:46:23;;;;;;;0.35;0.22;;;16.80;82.70;;;;;;5003733;28;20050;-77
2024/04/05 08:48:49;;;;;;;0.22;0.22;;;16.80;82.90;;;;;;5018401;28;20483;-77
2024/04/05 08:51:15;;;;;;;1.60;0.30;;;16.80;83.10;;;;;;4987180;28;20112;-77
2024/04/05 08:53:41;;;;;;;0.70;0.30;;;16.80;82.80;;;;;;5001368;28;20041;-78
2024/04/05 08:56:07;;;;;;;0.85;0.40;;;16.80;82.60;;;;;;5002375;28;20049;-77
2024/04/05 08:58:33;;;;;;;0.30;0.20;;;16.80;82.50;;;;;;5002437;28;20046;-77
2024/04/05 09:00:59;;;;;;;0.10;0.10;;;16.80;82.30;;;;;;5036654;28;20044;-77
2024/04/05 09:03:24;;;;;;;0.30;0.20;;;16.80;82.10;;;;;;5017422;28;20057;-77
2024/04/05 09:05:50;;;;;;;0.30;0.30;;;16.80;82.10;;;;;;5033955;28;20049;-78
2024/04/05 09:08:16;;;;;;;0.82;0.45;;;16.80;81.90;;;;;;5004575;28;20066;-77
2024/04/05 09:10:50;;;;;;;0.30;0.30;;;16.90;81.60;;;;;;4987979;28;20046;-78
2024/04/05 09:13:20;;;;;;;0.30;0.30;;;16.90;81.50;;;;;;5004495;28;20065;-77
2024/04/05 09:15:52;;;;;;;0.30;0.30;;;16.90;81.40;;;;;;5004394;28;20042;-78
2024/04/05 09:18:25;;;;;;;0.40;0.40;;;17.00;81.40;;;;;;5000979;28;20038;-77
2024/04/05 09:20:51;;;;;;;0.20;0.20;;;17.00;81.30;;;;;;5036775;28;20049;-78
2024/04/05 09:23:16;;;;;;;0.43;0.20;;;17.00;81.00;;;;;;5037452;28;20046;-77
2024/04/05 09:25:43;;;;;;;0.40;0.20;;;17.00;80.90;;;;;;5008069;28;20454;-78
2024/04/05 09:28:10;;;;;;;0.30;0.30;;;17.00;80.70;;;;;;5008434;28;20042;-77
2024/04/05 09:30:36;;;;;;;0.20;0.20;;;17.00;80.80;;;;;;5008890;28;20041;-77
2024/04/05 09:33:01;;;;;;;0.30;0.20;;;17.00;80.60;;;;;;4974420;28;20048;-78
2024/04/05 09:35:31;;;;;;;0.20;0.20;;;17.00;80.80;;;;;;5007423;28;20046;-77
2024/04/05 09:37:56;;;;;;;0.35;0.30;;;17.00;80.80;;;;;;5034206;28;20045;-78
2024/04/05 09:40:23;;;;;;;0.65;0.20;;;17.00;80.70;;;;;;4991281;28;20030;-77
2024/04/05 09:42:52;;;;;;;0.60;0.30;;;17.00;80.80;;;;;;5007105;28;20408;-77
2024/04/05 09:45:21;;;;;;;0.40;0.35;;;17.00;80.60;;;;;;5007044;28;20049;-77
2024/04/05 09:47:47;;;;;;;0.20;0.20;;;17.00;80.60;;;;;;5007296;28;20176;-77
2024/04/05 09:50:14;;;;;;;0.35;0.20;;;17.00;80.70;;;;;;5007901;28;20042;-77
2024/04/05 09:52:43;;;;;;;0.55;0.38;;;17.00;80.70;;;;;;5021979;28;20057;-77
2024/04/05 09:55:09;;;;;;;0.32;0.10;;;17.10;80.80;;;;;;4983019;28;20060;-77
2024/04/05 09:57:36;;;;;;;0.10;0.10;;;17.00;81.00;;;;;;5007566;28;20041;-77
2024/04/05 10:00:14;;;;;;;0.40;0.20;;;17.00;81.00;;;;;;4990814;28;20038;-77
2024/04/05 10:02:43;;;;;;;0.20;0.13;;;17.00;81.00;;;;;;5005906;28;20053;-77
2024/04/05 10:05:12;;;;;;;0.20;0.20;;;17.00;81.50;;;;;;4973578;28;20409;-78
2024/04/05 10:07:39;;;;;;;0.30;0.30;;;17.00;81.20;;;;;;5007059;28;20026;-77
2024/04/05 10:10:09;;;;;;;0.25;0.22;;;17.00;81.70;;;;;;4986250;28;20054;-77
2024/04/05 10:12:34;;;;;;;0.75;0.30;;;17.00;82.10;;;;;;5007479;28;20050;-77
2024/04/05 10:15:01;;;;;;;0.52;0.20;;;17.00;82.40;;;;;;4990003;28;20034;-78
2024/04/05 10:17:29;;;;;;;0.70;0.20;;;17.10;81.40;;;;;;5006252;28;20038;-77
2024/04/05 10:20:06;;;;;;;0.30;0.20;;;17.10;81.20;;;;;;5037169;28;20125;-78
2024/04/05 10:22:32;;;;;;;0.20;0.20;;;17.10;81.00;;;;;;5006858;28;20076;-78
2024/04/05 10:24:58;;;;;;;0.20;0.20;;;17.10;81.40;;;;;;5007138;28;20045;-78
2024/04/05 10:27:25;;;;;;;0.40;0.30;;;17.20;81.00;;;;;;4990379;28;20034;-77
2024/04/05 10:30:17;;;;;;;0.28;0.28;;;17.20;80.90;;;;;;4991567;28;20041;-78
2024/04/05 10:32:42;;;;;;;0.20;0.20;;;17.20;81.10;;;;;;4986922;28;20069;-77
2024/04/05 10:35:11;;;;;;;0.50;0.32;;;17.20;81.20;;;;;;5012897;28;20070;-77
2024/04/05 10:37:38;;;;;;;0.50;0.30;;;17.20;81.00;;;;;;5006402;28;20100;-77
2024/04/05 10:40:10;;;;;;;0.35;0.20;;;17.20;80.90;;;;;;5005727;28;21068;-77
2024/04/05 10:42:37;;;;;;;0.57;0.20;;;17.30;80.80;;;;;;4987807;28;20129;-77
2024/04/05 10:45:05;;;;;;;0.45;0.20;;;17.30;80.90;;;;;;4984943;28;20526;-77
2024/04/05 10:47:35;;;;;;;0.28;0.20;;;17.20;80.40;;;;;;5006040;28;20072;-78
2024/04/05 10:50:02;;;;;;;0.55;0.20;;;17.20;80.70;;;;;;5006757;28;20073;-78
2024/04/05 10:52:30;;;;;;;0.25;0.10;;;17.20;80.50;;;;;;5002985;28;20112;-77
2024/04/05 10:54:56;;;;;;;0.17;0.17;;;17.20;80.10;;;;;;5007048;28;20104;-78
2024/04/05 10:57:22;;;;;;;0.20;0.20;;;17.20;80.20;;;;;;5004892;28;20463;-78
2024/04/05 10:59:47;;;;;;;0.72;0.22;;;17.20;80.20;;;;;;4312707;28;10021465;-78
2024/04/05 11:02:13;;;;;;;0.35;0.20;;;17.20;80.20;;;;;;5002665;28;20508;-78
2024/04/05 11:04:39;;;;;;;1.40;0.30;;;17.30;80.00;;;;;;4999725;28;20069;-79
2024/04/05 11:07:04;;;;;;;0.70;0.28;;;17.30;80.00;;;;;;4985230;28;20049;-78
2024/04/05 11:09:32;;;;;;;0.65;0.47;;;17.30;79.70;;;;;;5002725;28;20052;-77
2024/04/05 11:11:59;;;;;;;0.28;0.17;;;17.30;80.00;;;;;;4983403;28;20129;-77
2024/04/05 11:14:25;;;;;;;0.45;0.30;;;17.30;79.80;;;;;;4985018;28;20045;-77
2024/04/05 11:16:57;;;;;;;0.43;0.43;;;17.30;80.10;;;;;;4985622;28;20049;-78
2024/04/05 11:19:26;;;;;;;0.28;0.28;;;17.30;80.00;;;;;;5001864;28;20045;-77
2024/04/05 11:21:53;;;;;;;0.40;0.20;;;17.30;79.80;;;;;;5001426;28;20050;-78
2024/04/05 11:24:19;;;;;;;0.32;0.13;;;17.40;79.90;;;;;;5001981;28;20053;-77
2024/04/05 11:26:49;;;;;;;0.50;0.20;;;17.30;79.80;;;;;;4985688;28;20049;-77
2024/04/05 11:29:14;;;;;;;0.20;0.20;;;17.40;80.10;;;;;;5000950;28;20049;-78
2024/04/05 11:31:40;;;;;;;0.10;0.10;;;17.40;79.90;;;;;;4999452;28;20056;-78
2024/04/05 11:34:06;;;;;;;0.30;0.20;;;17.30;79.20;;;;;;4984883;28;20498;-78
2024/04/05 11:36:31;;;;;;;0.43;0.28;;;17.40;79.30;;;;;;5002413;28;20084;-77
2024/04/05 11:38:57;;;;;;;0.50;0.30;;;17.50;79.30;;;;;;5000213;28;20412;-78
2024/04/05 11:41:24;;;;;;;0.50;0.30;;;17.50;79.60;;;;;;5028172;28;20389;-77
2024/04/05 11:43:50;;;;;;;0.38;0.17;;;17.50;80.20;;;;;;5001601;28;20135;-78
2024/04/05 11:46:16;;;;;;;0.30;0.20;;;17.50;80.80;;;;;;5006930;28;20560;-78
2024/04/05 11:48:42;;;;;;;0.20;0.20;;;17.50;81.10;;;;;;5001939;28;20050;-78
2024/04/05 11:51:07;;;;;;;0.20;0.20;;;17.60;82.50;;;;;;4997250;28;20042;-77
2024/04/05 11:53:33;;;;;;;0.50;0.30;;;17.60;87.50;;;;;;4985038;28;20116;-78
2024/04/05 11:55:58;;;;;;;0.75;0.30;;;17.60;92.40;;;;;;4999353;28;20475;-78
2024/04/05 11:58:24;;;;;;;0.47;0.40;;;17.60;84.10;;;;;;4999655;28;20046;-78
2024/04/05 12:00:50;;;;;;;0.40;0.40;;;17.70;83.40;;;;;;5001394;28;20046;-77
2024/04/05 12:03:16;;;;;;;0.45;0.30;;;17.70;82.60;;;;;;5029726;28;20065;-79
2024/04/05 12:05:44;;;;;;;0.20;0.20;;;17.60;81.80;;;;;;4998605;28;20048;-79
2024/04/05 12:08:10;;;;;;;0.80;0.35;;;17.60;81.20;;;;;;4981802;28;20045;-78
2024/04/05 12:10:36;;;;;;;0.50;0.30;;;17.60;81.30;;;;;;4989431;28;20077;-78
2024/04/05 12:13:02;;;;;;;0.40;0.20;;;17.60;82.10;;;;;;5001447;28;20108;-78
2024/04/05 12:15:27;;;;;;;0.63;0.30;;;17.60;82.60;;;;;;5000540;28;20050;-78
2024/04/05 12:17:53;;;;;;;0.57;0.13;;;17.70;83.60;;;;;;4981517;28;20495;-78
2024/04/05 12:20:19;;;;;;;0.38;0.38;;;17.60;95.20;;;;;;5014525;28;20042;-78
2024/04/05 12:22:45;;;;;;;0.45;0.40;;;17.60;93.60;;;;;;5002437;28;20042;-79
2024/04/05 12:25:11;;;;;;;0.20;0.20;;;17.70;93.00;;;;;;5014407;28;20042;-79
2024/04/05 12:27:36;;;;;;;0.15;0.15;;;17.60;88.10;;;;;;4997880;28;20050;-79
2024/04/05 12:30:03;;;;;;;0.40;0.20;;;17.60;87.70;;;;;;4996500;28;20030;-78
2024/04/05 12:32:29;;;;;;;0.28;0.28;;;17.70;86.90;;;;;;4967909;28;20057;-78
2024/04/05 12:34:56;;;;;;;0.43;0.30;;;17.60;86.10;;;;;;4999501;28;20054;-78
2024/04/05 12:37:21;;;;;;;1.58;0.30;;;17.70;84.20;;;;;;5030400;28;20034;-79
2024/04/05 12:39:48;;;;;;;0.98;0.40;;;17.70;82.90;;;;;;4982644;28;20096;-78
2024/04/05 12:42:14;;;;;;;0.20;0.20;;;17.60;82.00;;;;;;4999911;28;20133;-78